sensor_id;sensor_type;location;lat;lon;timestamp;P1;durP1;ratioP1;P2;durP2;ratioP2
68457;SDS011;65384;52.016;5.428;2022-12-07T00:01:25;17.88;;;7.85;;
68457;SDS011;65384;52.016;5.428;2022-12-07T00:03:52;16.63;;;7.72;;
68457;SDS011;65384;52.016;5.428;2022-12-07T00:06:19;14.82;;;7.30;;
68457;SDS011;65384;52.016;5.428;2022-12-07T00:08:45;17.85;;;7.50;;
68457;SDS011;65384;52.016;5.428;2022-12-07T00:11:12;14.88;;;6.57;;
68457;SDS011;65384;52.016;5.428;2022-12-07T00:13:44;18.95;;;6.88;;
68457;SDS011;65384;52.016;5.428;2022-12-07T00:16:14;14.60;;;6.80;;
68457;SDS011;65384;52.016;5.428;2022-12-07T00:18:40;12.07;;;6.72;;
68457;SDS011;65384;52.016;5.428;2022-12-07T00:21:08;15.35;;;6.70;;
68457;SDS011;65384;52.016;5.428;2022-12-07T00:23:36;14.57;;;5.97;;
68457;SDS011;65384;52.016;5.428;2022-12-07T00:26:03;13.07;;;6.20;;
68457;SDS011;65384;52.016;5.428;2022-12-07T00:28:29;10.60;;;6.00;;
68457;SDS011;65384;52.016;5.428;2022-12-07T00:31:05;11.65;;;5.80;;
68457;SDS011;65384;52.016;5.428;2022-12-07T00:33:32;12.13;;;5.35;;
68457;SDS011;65384;52.016;5.428;2022-12-07T00:35:58;13.93;;;5.90;;
68457;SDS011;65384;52.016;5.428;2022-12-07T00:38:24;11.25;;;5.50;;
68457;SDS011;65384;52.016;5.428;2022-12-07T00:40:54;13.15;;;5.20;;
68457;SDS011;65384;52.016;5.428;2022-12-07T00:43:20;13.70;;;5.32;;
68457;SDS011;65384;52.016;5.428;2022-12-07T00:45:45;10.25;;;5.50;;
68457;SDS011;65384;52.016;5.428;2022-12-07T00:48:11;11.75;;;5.50;;
68457;SDS011;65384;52.016;5.428;2022-12-07T00:50:36;12.57;;;4.90;;
68457;SDS011;65384;52.016;5.428;2022-12-07T00:53:01;10.88;;;5.13;;
68457;SDS011;65384;52.016;5.428;2022-12-07T00:55:27;12.70;;;5.03;;
68457;SDS011;65384;52.016;5.428;2022-12-07T00:57:52;10.60;;;5.22;;
68457;SDS011;65384;52.016;5.428;2022-12-07T01:00:18;16.90;;;5.53;;
68457;SDS011;65384;52.016;5.428;2022-12-07T01:02:43;13.07;;;5.35;;
68457;SDS011;65384;52.016;5.428;2022-12-07T01:05:09;9.95;;;5.93;;
68457;SDS011;65384;52.016;5.428;2022-12-07T01:07:34;11.32;;;5.30;;
68457;SDS011;65384;52.016;5.428;2022-12-07T01:09:59;10.98;;;5.35;;
68457;SDS011;65384;52.016;5.428;2022-12-07T01:12:24;9.50;;;4.95;;
68457;SDS011;65384;52.016;5.428;2022-12-07T01:14:50;11.73;;;5.13;;
68457;SDS011;65384;52.016;5.428;2022-12-07T01:17:15;12.88;;;5.10;;
68457;SDS011;65384;52.016;5.428;2022-12-07T01:19:40;9.00;;;4.70;;
68457;SDS011;65384;52.016;5.428;2022-12-07T01:22:06;14.13;;;5.43;;
68457;SDS011;65384;52.016;5.428;2022-12-07T01:24:31;11.93;;;5.20;;
68457;SDS011;65384;52.016;5.428;2022-12-07T01:26:56;11.27;;;4.90;;
68457;SDS011;65384;52.016;5.428;2022-12-07T01:29:22;10.15;;;4.93;;
68457;SDS011;65384;52.016;5.428;2022-12-07T01:31:48;14.15;;;5.40;;
68457;SDS011;65384;52.016;5.428;2022-12-07T01:34:14;10.10;;;5.30;;
68457;SDS011;65384;52.016;5.428;2022-12-07T01:36:39;10.98;;;5.07;;
68457;SDS011;65384;52.016;5.428;2022-12-07T01:39:05;10.25;;;5.20;;
68457;SDS011;65384;52.016;5.428;2022-12-07T01:41:32;11.15;;;5.20;;
68457;SDS011;65384;52.016;5.428;2022-12-07T01:46:34;9.05;;;5.13;;
68457;SDS011;65384;52.016;5.428;2022-12-07T01:48:59;12.25;;;5.80;;
68457;SDS011;65384;52.016;5.428;2022-12-07T01:51:25;11.65;;;5.63;;
68457;SDS011;65384;52.016;5.428;2022-12-07T01:53:51;10.20;;;5.18;;
68457;SDS011;65384;52.016;5.428;2022-12-07T01:56:18;13.05;;;5.20;;
68457;SDS011;65384;52.016;5.428;2022-12-07T01:58:46;11.55;;;5.05;;
68457;SDS011;65384;52.016;5.428;2022-12-07T02:01:12;12.75;;;5.88;;
68457;SDS011;65384;52.016;5.428;2022-12-07T02:03:38;8.98;;;4.80;;
68457;SDS011;65384;52.016;5.428;2022-12-07T02:06:05;10.85;;;5.10;;
68457;SDS011;65384;52.016;5.428;2022-12-07T02:08:32;9.98;;;5.32;;
68457;SDS011;65384;52.016;5.428;2022-12-07T02:10:57;12.43;;;5.43;;
68457;SDS011;65384;52.016;5.428;2022-12-07T02:13:24;11.57;;;5.65;;
68457;SDS011;65384;52.016;5.428;2022-12-07T02:21:30;9.80;;;4.70;;
68457;SDS011;65384;52.016;5.428;2022-12-07T02:30:06;10.13;;;4.70;;
68457;SDS011;65384;52.016;5.428;2022-12-07T02:43:06;12.40;;;4.88;;
68457;SDS011;65384;52.016;5.428;2022-12-07T02:45:36;15.27;;;5.25;;
68457;SDS011;65384;52.016;5.428;2022-12-07T02:48:03;10.65;;;4.95;;
68457;SDS011;65384;52.016;5.428;2022-12-07T02:50:30;13.57;;;5.03;;
68457;SDS011;65384;52.016;5.428;2022-12-07T02:52:55;12.73;;;4.75;;
68457;SDS011;65384;52.016;5.428;2022-12-07T02:55:22;14.50;;;5.25;;
68457;SDS011;65384;52.016;5.428;2022-12-07T02:58:03;12.90;;;4.97;;
68457;SDS011;65384;52.016;5.428;2022-12-07T03:00:39;13.52;;;4.97;;
68457;SDS011;65384;52.016;5.428;2022-12-07T03:03:10;15.00;;;5.35;;
68457;SDS011;65384;52.016;5.428;2022-12-07T03:05:55;17.17;;;5.10;;
68457;SDS011;65384;52.016;5.428;2022-12-07T03:12:26;12.63;;;4.60;;
68457;SDS011;65384;52.016;5.428;2022-12-07T03:14:30;9.70;;;4.45;;
68457;SDS011;65384;52.016;5.428;2022-12-07T03:17:12;7.72;;;4.53;;
68457;SDS011;65384;52.016;5.428;2022-12-07T03:19:39;12.95;;;4.68;;
68457;SDS011;65384;52.016;5.428;2022-12-07T03:22:07;10.05;;;4.65;;
68457;SDS011;65384;52.016;5.428;2022-12-07T03:24:57;11.32;;;5.05;;
68457;SDS011;65384;52.016;5.428;2022-12-07T03:30:26;8.88;;;4.45;;
68457;SDS011;65384;52.016;5.428;2022-12-07T03:35:28;9.68;;;4.68;;
68457;SDS011;65384;52.016;5.428;2022-12-07T03:43:29;11.45;;;5.32;;
68457;SDS011;65384;52.016;5.428;2022-12-07T03:48:40;11.80;;;5.00;;
68457;SDS011;65384;52.016;5.428;2022-12-07T03:51:21;12.70;;;4.68;;
68457;SDS011;65384;52.016;5.428;2022-12-07T03:53:51;9.87;;;4.57;;
68457;SDS011;65384;52.016;5.428;2022-12-07T03:56:39;14.10;;;4.88;;
68457;SDS011;65384;52.016;5.428;2022-12-07T03:59:05;9.57;;;4.45;;
68457;SDS011;65384;52.016;5.428;2022-12-07T04:01:31;11.85;;;4.38;;
68457;SDS011;65384;52.016;5.428;2022-12-07T04:03:57;12.57;;;5.03;;
68457;SDS011;65384;52.016;5.428;2022-12-07T04:06:22;9.05;;;4.38;;
68457;SDS011;65384;52.016;5.428;2022-12-07T04:08:47;9.40;;;4.43;;
68457;SDS011;65384;52.016;5.428;2022-12-07T04:11:13;9.65;;;4.43;;
68457;SDS011;65384;52.016;5.428;2022-12-07T04:13:38;8.20;;;4.45;;
68457;SDS011;65384;52.016;5.428;2022-12-07T04:16:22;9.57;;;4.30;;
68457;SDS011;65384;52.016;5.428;2022-12-07T04:18:47;10.05;;;4.70;;
68457;SDS011;65384;52.016;5.428;2022-12-07T04:21:12;10.23;;;4.85;;
68457;SDS011;65384;52.016;5.428;2022-12-07T04:23:38;11.73;;;4.82;;
68457;SDS011;65384;52.016;5.428;2022-12-07T04:26:03;8.40;;;4.32;;
68457;SDS011;65384;52.016;5.428;2022-12-07T04:28:28;11.05;;;4.55;;
68457;SDS011;65384;52.016;5.428;2022-12-07T04:30:54;10.32;;;4.63;;
68457;SDS011;65384;52.016;5.428;2022-12-07T04:33:19;8.73;;;4.28;;
68457;SDS011;65384;52.016;5.428;2022-12-07T04:35:44;9.75;;;3.97;;
68457;SDS011;65384;52.016;5.428;2022-12-07T04:38:10;10.93;;;4.32;;
68457;SDS011;65384;52.016;5.428;2022-12-07T04:40:35;12.02;;;4.40;;
68457;SDS011;65384;52.016;5.428;2022-12-07T04:43:00;8.00;;;4.15;;
68457;SDS011;65384;52.016;5.428;2022-12-07T04:45:26;8.77;;;4.28;;
68457;SDS011;65384;52.016;5.428;2022-12-07T04:47:51;8.10;;;4.03;;
68457;SDS011;65384;52.016;5.428;2022-12-07T04:50:16;7.85;;;3.88;;
68457;SDS011;65384;52.016;5.428;2022-12-07T04:52:42;9.50;;;3.97;;
68457;SDS011;65384;52.016;5.428;2022-12-07T04:55:07;10.10;;;3.83;;
68457;SDS011;65384;52.016;5.428;2022-12-07T04:57:33;8.77;;;3.78;;
68457;SDS011;65384;52.016;5.428;2022-12-07T04:59:58;12.00;;;3.70;;
68457;SDS011;65384;52.016;5.428;2022-12-07T05:02:23;9.07;;;4.15;;
68457;SDS011;65384;52.016;5.428;2022-12-07T05:04:49;9.85;;;3.63;;
68457;SDS011;65384;52.016;5.428;2022-12-07T05:07:14;9.90;;;3.13;;
68457;SDS011;65384;52.016;5.428;2022-12-07T05:09:39;9.93;;;3.50;;
68457;SDS011;65384;52.016;5.428;2022-12-07T05:12:05;13.13;;;3.60;;
68457;SDS011;65384;52.016;5.428;2022-12-07T05:14:30;10.15;;;3.50;;
68457;SDS011;65384;52.016;5.428;2022-12-07T05:16:55;6.32;;;2.92;;
68457;SDS011;65384;52.016;5.428;2022-12-07T05:19:21;6.97;;;2.65;;
68457;SDS011;65384;52.016;5.428;2022-12-07T05:21:46;8.55;;;2.70;;
68457;SDS011;65384;52.016;5.428;2022-12-07T05:24:12;7.03;;;2.78;;
68457;SDS011;65384;52.016;5.428;2022-12-07T05:26:39;6.72;;;2.50;;
68457;SDS011;65384;52.016;5.428;2022-12-07T05:29:04;7.97;;;2.40;;
68457;SDS011;65384;52.016;5.428;2022-12-07T05:31:30;6.95;;;2.30;;
68457;SDS011;65384;52.016;5.428;2022-12-07T05:33:56;6.03;;;2.20;;
68457;SDS011;65384;52.016;5.428;2022-12-07T05:36:21;6.82;;;2.25;;
68457;SDS011;65384;52.016;5.428;2022-12-07T05:38:47;4.88;;;2.40;;
68457;SDS011;65384;52.016;5.428;2022-12-07T05:41:14;9.48;;;2.22;;
68457;SDS011;65384;52.016;5.428;2022-12-07T05:44:00;4.32;;;1.85;;
68457;SDS011;65384;52.016;5.428;2022-12-07T05:46:26;4.53;;;2.10;;
68457;SDS011;65384;52.016;5.428;2022-12-07T05:48:51;7.55;;;2.08;;
68457;SDS011;65384;52.016;5.428;2022-12-07T05:51:16;9.63;;;2.70;;
68457;SDS011;65384;52.016;5.428;2022-12-07T05:53:42;12.13;;;2.10;;
68457;SDS011;65384;52.016;5.428;2022-12-07T05:56:07;8.45;;;2.10;;
68457;SDS011;65384;52.016;5.428;2022-12-07T05:58:32;6.40;;;1.98;;
68457;SDS011;65384;52.016;5.428;2022-12-07T06:01:16;6.50;;;2.00;;
68457;SDS011;65384;52.016;5.428;2022-12-07T06:03:42;3.30;;;1.90;;
68457;SDS011;65384;52.016;5.428;2022-12-07T06:06:07;4.40;;;2.15;;
68457;SDS011;65384;52.016;5.428;2022-12-07T06:08:32;4.82;;;1.90;;
68457;SDS011;65384;52.016;5.428;2022-12-07T06:10:58;6.32;;;2.13;;
68457;SDS011;65384;52.016;5.428;2022-12-07T06:13:42;3.45;;;2.00;;
68457;SDS011;65384;52.016;5.428;2022-12-07T06:16:07;6.50;;;2.10;;
68457;SDS011;65384;52.016;5.428;2022-12-07T06:18:32;10.65;;;2.25;;
68457;SDS011;65384;52.016;5.428;2022-12-07T06:20:58;5.75;;;2.10;;
68457;SDS011;65384;52.016;5.428;2022-12-07T06:23:24;4.82;;;2.00;;
68457;SDS011;65384;52.016;5.428;2022-12-07T06:25:49;5.95;;;2.03;;
68457;SDS011;65384;52.016;5.428;2022-12-07T06:28:15;3.75;;;2.17;;
68457;SDS011;65384;52.016;5.428;2022-12-07T06:30:40;9.50;;;2.40;;
68457;SDS011;65384;52.016;5.428;2022-12-07T06:33:05;8.23;;;2.50;;
68457;SDS011;65384;52.016;5.428;2022-12-07T06:35:32;4.88;;;2.10;;
68457;SDS011;65384;52.016;5.428;2022-12-07T06:37:57;7.10;;;2.47;;
68457;SDS011;65384;52.016;5.428;2022-12-07T06:40:23;9.00;;;2.58;;
68457;SDS011;65384;52.016;5.428;2022-12-07T06:42:48;6.68;;;2.35;;
68457;SDS011;65384;52.016;5.428;2022-12-07T06:45:13;7.40;;;2.47;;
68457;SDS011;65384;52.016;5.428;2022-12-07T06:47:39;6.38;;;2.20;;
68457;SDS011;65384;52.016;5.428;2022-12-07T06:50:04;8.15;;;2.65;;
68457;SDS011;65384;52.016;5.428;2022-12-07T06:52:32;10.23;;;2.78;;
68457;SDS011;65384;52.016;5.428;2022-12-07T06:54:58;8.65;;;2.55;;
68457;SDS011;65384;52.016;5.428;2022-12-07T06:57:23;5.20;;;2.47;;
68457;SDS011;65384;52.016;5.428;2022-12-07T06:59:49;8.55;;;2.85;;
68457;SDS011;65384;52.016;5.428;2022-12-07T07:02:14;13.88;;;3.10;;
68457;SDS011;65384;52.016;5.428;2022-12-07T07:04:39;3.80;;;2.33;;
68457;SDS011;65384;52.016;5.428;2022-12-07T07:07:05;7.00;;;3.13;;
68457;SDS011;65384;52.016;5.428;2022-12-07T07:09:30;10.18;;;3.03;;
68457;SDS011;65384;52.016;5.428;2022-12-07T07:11:55;6.03;;;2.78;;
68457;SDS011;65384;52.016;5.428;2022-12-07T07:14:21;6.22;;;2.65;;
68457;SDS011;65384;52.016;5.428;2022-12-07T07:16:46;6.30;;;2.80;;
68457;SDS011;65384;52.016;5.428;2022-12-07T07:19:12;7.65;;;3.00;;
68457;SDS011;65384;52.016;5.428;2022-12-07T07:21:37;7.43;;;2.67;;
68457;SDS011;65384;52.016;5.428;2022-12-07T07:24:02;7.28;;;2.70;;
68457;SDS011;65384;52.016;5.428;2022-12-07T07:26:28;8.02;;;2.97;;
68457;SDS011;65384;52.016;5.428;2022-12-07T07:28:53;4.68;;;2.30;;
68457;SDS011;65384;52.016;5.428;2022-12-07T07:31:18;5.78;;;2.72;;
68457;SDS011;65384;52.016;5.428;2022-12-07T07:33:45;5.78;;;2.70;;
68457;SDS011;65384;52.016;5.428;2022-12-07T07:36:11;5.85;;;2.75;;
68457;SDS011;65384;52.016;5.428;2022-12-07T07:38:37;9.25;;;3.70;;
68457;SDS011;65384;52.016;5.428;2022-12-07T07:41:02;7.18;;;3.40;;
68457;SDS011;65384;52.016;5.428;2022-12-07T07:43:27;9.27;;;3.03;;
68457;SDS011;65384;52.016;5.428;2022-12-07T07:45:53;6.63;;;2.83;;
68457;SDS011;65384;52.016;5.428;2022-12-07T07:48:18;7.78;;;3.15;;
68457;SDS011;65384;52.016;5.428;2022-12-07T07:50:43;7.25;;;3.33;;
68457;SDS011;65384;52.016;5.428;2022-12-07T07:53:09;6.93;;;2.90;;
68457;SDS011;65384;52.016;5.428;2022-12-07T07:55:34;9.18;;;3.80;;
68457;SDS011;65384;52.016;5.428;2022-12-07T07:57:59;7.10;;;3.33;;
68457;SDS011;65384;52.016;5.428;2022-12-07T08:00:25;9.82;;;3.90;;
68457;SDS011;65384;52.016;5.428;2022-12-07T08:02:50;10.32;;;3.20;;
68457;SDS011;65384;52.016;5.428;2022-12-07T08:05:15;11.60;;;3.67;;
68457;SDS011;65384;52.016;5.428;2022-12-07T08:07:41;9.20;;;3.22;;
68457;SDS011;65384;52.016;5.428;2022-12-07T08:10:07;9.80;;;3.50;;
68457;SDS011;65384;52.016;5.428;2022-12-07T08:12:35;13.65;;;4.88;;
68457;SDS011;65384;52.016;5.428;2022-12-07T08:15:02;10.55;;;4.60;;
68457;SDS011;65384;52.016;5.428;2022-12-07T08:17:28;10.57;;;4.47;;
68457;SDS011;65384;52.016;5.428;2022-12-07T08:19:53;10.70;;;4.82;;
68457;SDS011;65384;52.016;5.428;2022-12-07T08:22:19;11.20;;;5.55;;
68457;SDS011;65384;52.016;5.428;2022-12-07T08:24:44;9.27;;;4.82;;
68457;SDS011;65384;52.016;5.428;2022-12-07T08:27:09;10.50;;;4.75;;
68457;SDS011;65384;52.016;5.428;2022-12-07T08:29:35;10.75;;;4.72;;
68457;SDS011;65384;52.016;5.428;2022-12-07T08:32:00;10.13;;;4.72;;
68457;SDS011;65384;52.016;5.428;2022-12-07T08:34:26;10.95;;;4.40;;
68457;SDS011;65384;52.016;5.428;2022-12-07T08:36:51;7.97;;;4.07;;
68457;SDS011;65384;52.016;5.428;2022-12-07T08:39:17;14.95;;;4.50;;
68457;SDS011;65384;52.016;5.428;2022-12-07T08:41:42;9.15;;;4.05;;
68457;SDS011;65384;52.016;5.428;2022-12-07T08:44:07;9.18;;;4.38;;
68457;SDS011;65384;52.016;5.428;2022-12-07T08:46:37;11.02;;;3.88;;
68457;SDS011;65384;52.016;5.428;2022-12-07T08:49:08;13.48;;;3.65;;
68457;SDS011;65384;52.016;5.428;2022-12-07T08:51:35;13.48;;;3.10;;
68457;SDS011;65384;52.016;5.428;2022-12-07T08:54:01;9.38;;;2.80;;
68457;SDS011;65384;52.016;5.428;2022-12-07T08:56:29;9.63;;;2.50;;
68457;SDS011;65384;52.016;5.428;2022-12-07T08:58:55;7.70;;;2.22;;
68457;SDS011;65384;52.016;5.428;2022-12-07T09:01:20;4.90;;;1.92;;
68457;SDS011;65384;52.016;5.428;2022-12-07T09:03:46;7.00;;;1.83;;
68457;SDS011;65384;52.016;5.428;2022-12-07T09:06:11;5.22;;;1.80;;
68457;SDS011;65384;52.016;5.428;2022-12-07T09:08:39;4.93;;;1.80;;
68457;SDS011;65384;52.016;5.428;2022-12-07T09:11:10;6.88;;;2.30;;
68457;SDS011;65384;52.016;5.428;2022-12-07T09:13:35;6.63;;;2.28;;
68457;SDS011;65384;52.016;5.428;2022-12-07T09:16:03;11.98;;;2.25;;
68457;SDS011;65384;52.016;5.428;2022-12-07T09:18:32;8.85;;;2.00;;
68457;SDS011;65384;52.016;5.428;2022-12-07T09:20:59;8.98;;;2.08;;
68457;SDS011;65384;52.016;5.428;2022-12-07T09:23:25;8.48;;;2.60;;
68457;SDS011;65384;52.016;5.428;2022-12-07T09:26:00;11.45;;;3.40;;
68457;SDS011;65384;52.016;5.428;2022-12-07T09:28:32;12.20;;;3.40;;
68457;SDS011;65384;52.016;5.428;2022-12-07T09:30:57;12.30;;;3.80;;
68457;SDS011;65384;52.016;5.428;2022-12-07T09:33:23;10.55;;;3.70;;
68457;SDS011;65384;52.016;5.428;2022-12-07T09:35:55;9.70;;;3.40;;
68457;SDS011;65384;52.016;5.428;2022-12-07T09:38:21;10.80;;;2.95;;
68457;SDS011;65384;52.016;5.428;2022-12-07T09:40:49;10.85;;;3.38;;
68457;SDS011;65384;52.016;5.428;2022-12-07T09:43:21;6.93;;;2.50;;
68457;SDS011;65384;52.016;5.428;2022-12-07T09:45:50;7.65;;;2.53;;
68457;SDS011;65384;52.016;5.428;2022-12-07T09:48:19;10.50;;;2.67;;
68457;SDS011;65384;52.016;5.428;2022-12-07T09:50:57;8.70;;;2.22;;
68457;SDS011;65384;52.016;5.428;2022-12-07T09:53:27;8.45;;;2.35;;
68457;SDS011;65384;52.016;5.428;2022-12-07T09:55:55;8.55;;;2.17;;
68457;SDS011;65384;52.016;5.428;2022-12-07T09:58:24;8.68;;;2.00;;
68457;SDS011;65384;52.016;5.428;2022-12-07T10:01:05;3.47;;;1.70;;
68457;SDS011;65384;52.016;5.428;2022-12-07T10:03:37;6.07;;;2.00;;
68457;SDS011;65384;52.016;5.428;2022-12-07T10:06:10;6.25;;;2.17;;
68457;SDS011;65384;52.016;5.428;2022-12-07T10:08:39;6.43;;;2.17;;
68457;SDS011;65384;52.016;5.428;2022-12-07T10:11:12;5.53;;;2.30;;
68457;SDS011;65384;52.016;5.428;2022-12-07T10:13:52;11.18;;;2.65;;
68457;SDS011;65384;52.016;5.428;2022-12-07T10:18:53;7.85;;;1.90;;
68457;SDS011;65384;52.016;5.428;2022-12-07T10:21:23;7.50;;;2.00;;
68457;SDS011;65384;52.016;5.428;2022-12-07T10:24:13;5.18;;;1.50;;
68457;SDS011;65384;52.016;5.428;2022-12-07T10:29:31;7.30;;;1.90;;
68457;SDS011;65384;52.016;5.428;2022-12-07T10:34:34;3.72;;;1.40;;
68457;SDS011;65384;52.016;5.428;2022-12-07T10:42:09;7.32;;;1.40;;
68457;SDS011;65384;52.016;5.428;2022-12-07T10:44:43;3.15;;;1.23;;
68457;SDS011;65384;52.016;5.428;2022-12-07T10:52:42;4.93;;;1.55;;
68457;SDS011;65384;52.016;5.428;2022-12-07T11:00:46;8.52;;;2.10;;
68457;SDS011;65384;52.016;5.428;2022-12-07T11:03:23;8.57;;;1.90;;
68457;SDS011;65384;52.016;5.428;2022-12-07T11:05:59;5.65;;;2.00;;
68457;SDS011;65384;52.016;5.428;2022-12-07T11:11:38;8.93;;;2.60;;
68457;SDS011;65384;52.016;5.428;2022-12-07T11:14:28;8.65;;;2.05;;
68457;SDS011;65384;52.016;5.428;2022-12-07T11:16:59;5.35;;;1.60;;
68457;SDS011;65384;52.016;5.428;2022-12-07T11:39:02;4.85;;;1.95;;
68457;SDS011;65384;52.016;5.428;2022-12-07T11:41:31;5.97;;;1.63;;
68457;SDS011;65384;52.016;5.428;2022-12-07T11:44:06;4.80;;;1.50;;
68457;SDS011;65384;52.016;5.428;2022-12-07T11:46:55;7.57;;;1.40;;
68457;SDS011;65384;52.016;5.428;2022-12-07T11:52:05;4.07;;;1.50;;
68457;SDS011;65384;52.016;5.428;2022-12-07T11:54:42;4.45;;;1.45;;
68457;SDS011;65384;52.016;5.428;2022-12-07T11:57:25;2.85;;;1.20;;
68457;SDS011;65384;52.016;5.428;2022-12-07T12:00:00;5.95;;;1.20;;
68457;SDS011;65384;52.016;5.428;2022-12-07T12:03:01;5.15;;;1.25;;
68457;SDS011;65384;52.016;5.428;2022-12-07T12:05:29;3.22;;;0.93;;
68457;SDS011;65384;52.016;5.428;2022-12-07T12:13:53;3.10;;;0.85;;
68457;SDS011;65384;52.016;5.428;2022-12-07T12:19:25;2.38;;;0.98;;
68457;SDS011;65384;52.016;5.428;2022-12-07T12:21:57;4.28;;;0.90;;
68457;SDS011;65384;52.016;5.428;2022-12-07T12:24:30;5.15;;;1.10;;
68457;SDS011;65384;52.016;5.428;2022-12-07T12:27:44;4.22;;;0.90;;
68457;SDS011;65384;52.016;5.428;2022-12-07T12:29:52;5.13;;;1.20;;
68457;SDS011;65384;52.016;5.428;2022-12-07T12:32:40;5.00;;;1.08;;
68457;SDS011;65384;52.016;5.428;2022-12-07T12:35:27;6.50;;;0.90;;
68457;SDS011;65384;52.016;5.428;2022-12-07T12:40:59;5.57;;;0.80;;
68457;SDS011;65384;52.016;5.428;2022-12-07T12:43:47;3.20;;;0.93;;
68457;SDS011;65384;52.016;5.428;2022-12-07T12:49:54;3.33;;;0.90;;
68457;SDS011;65384;52.016;5.428;2022-12-07T12:54:34;3.47;;;1.05;;
68457;SDS011;65384;52.016;5.428;2022-12-07T12:57:09;7.32;;;1.30;;
68457;SDS011;65384;52.016;5.428;2022-12-07T13:08:12;4.88;;;1.15;;
68457;SDS011;65384;52.016;5.428;2022-12-07T13:20:58;6.05;;;1.90;;
68457;SDS011;65384;52.016;5.428;2022-12-07T13:26:18;6.13;;;1.80;;
68457;SDS011;65384;52.016;5.428;2022-12-07T13:29:11;6.10;;;1.33;;
68457;SDS011;65384;52.016;5.428;2022-12-07T13:31:44;5.68;;;1.52;;
68457;SDS011;65384;52.016;5.428;2022-12-07T13:36:59;6.22;;;1.50;;
68457;SDS011;65384;52.016;5.428;2022-12-07T13:39:27;5.18;;;1.60;;
68457;SDS011;65384;52.016;5.428;2022-12-07T13:41:53;3.63;;;1.58;;
68457;SDS011;65384;52.016;5.428;2022-12-07T13:44:21;5.55;;;1.80;;
68457;SDS011;65384;52.016;5.428;2022-12-07T13:47:04;4.32;;;1.55;;
68457;SDS011;65384;52.016;5.428;2022-12-07T13:49:32;5.55;;;1.95;;
68457;SDS011;65384;52.016;5.428;2022-12-07T13:52:24;7.25;;;2.10;;
68457;SDS011;65384;52.016;5.428;2022-12-07T13:57:20;5.97;;;2.03;;
68457;SDS011;65384;52.016;5.428;2022-12-07T13:59:46;4.50;;;1.80;;
68457;SDS011;65384;52.016;5.428;2022-12-07T14:02:19;7.68;;;1.98;;
68457;SDS011;65384;52.016;5.428;2022-12-07T14:04:47;5.68;;;2.10;;
68457;SDS011;65384;52.016;5.428;2022-12-07T14:07:22;6.53;;;1.80;;
68457;SDS011;65384;52.016;5.428;2022-12-07T14:09:58;4.90;;;1.25;;
68457;SDS011;65384;52.016;5.428;2022-12-07T14:12:25;5.25;;;1.20;;
68457;SDS011;65384;52.016;5.428;2022-12-07T14:14:51;4.60;;;1.30;;
68457;SDS011;65384;52.016;5.428;2022-12-07T14:17:21;5.25;;;1.20;;
68457;SDS011;65384;52.016;5.428;2022-12-07T14:19:58;5.10;;;1.38;;
68457;SDS011;65384;52.016;5.428;2022-12-07T14:25:01;8.38;;;1.50;;
68457;SDS011;65384;52.016;5.428;2022-12-07T14:27:46;3.38;;;1.30;;
68457;SDS011;65384;52.016;5.428;2022-12-07T14:30:17;3.65;;;1.55;;
68457;SDS011;65384;52.016;5.428;2022-12-07T14:32:43;3.15;;;1.20;;
68457;SDS011;65384;52.016;5.428;2022-12-07T14:35:14;2.70;;;1.13;;
68457;SDS011;65384;52.016;5.428;2022-12-07T14:37:42;4.90;;;1.23;;
68457;SDS011;65384;52.016;5.428;2022-12-07T14:40:12;2.95;;;1.10;;
68457;SDS011;65384;52.016;5.428;2022-12-07T14:43:00;5.97;;;1.50;;
68457;SDS011;65384;52.016;5.428;2022-12-07T14:45:26;4.28;;;1.50;;
68457;SDS011;65384;52.016;5.428;2022-12-07T14:47:52;5.00;;;1.60;;
68457;SDS011;65384;52.016;5.428;2022-12-07T14:50:18;6.05;;;1.95;;
68457;SDS011;65384;52.016;5.428;2022-12-07T14:52:54;3.22;;;1.20;;
68457;SDS011;65384;52.016;5.428;2022-12-07T14:57:51;3.22;;;1.20;;
68457;SDS011;65384;52.016;5.428;2022-12-07T15:00:16;4.95;;;1.02;;
68457;SDS011;65384;52.016;5.428;2022-12-07T15:02:46;3.65;;;1.20;;
68457;SDS011;65384;52.016;5.428;2022-12-07T15:05:12;5.38;;;1.58;;
68457;SDS011;65384;52.016;5.428;2022-12-07T15:07:38;9.35;;;2.30;;
68457;SDS011;65384;52.016;5.428;2022-12-07T15:10:03;7.63;;;1.98;;
68457;SDS011;65384;52.016;5.428;2022-12-07T15:12:29;5.43;;;1.83;;
68457;SDS011;65384;52.016;5.428;2022-12-07T15:14:55;7.18;;;2.00;;
68457;SDS011;65384;52.016;5.428;2022-12-07T15:17:20;5.03;;;1.73;;
68457;SDS011;65384;52.016;5.428;2022-12-07T15:19:45;4.22;;;1.80;;
68457;SDS011;65384;52.016;5.428;2022-12-07T15:22:11;3.25;;;1.67;;
68457;SDS011;65384;52.016;5.428;2022-12-07T15:24:36;4.20;;;1.70;;
68457;SDS011;65384;52.016;5.428;2022-12-07T15:27:02;6.43;;;2.22;;
68457;SDS011;65384;52.016;5.428;2022-12-07T15:29:27;5.85;;;2.13;;
68457;SDS011;65384;52.016;5.428;2022-12-07T15:31:53;4.35;;;1.70;;
68457;SDS011;65384;52.016;5.428;2022-12-07T15:34:18;3.38;;;1.70;;
68457;SDS011;65384;52.016;5.428;2022-12-07T15:36:43;4.85;;;1.58;;
68457;SDS011;65384;52.016;5.428;2022-12-07T15:39:09;3.35;;;1.27;;
68457;SDS011;65384;52.016;5.428;2022-12-07T15:41:35;4.30;;;1.80;;
68457;SDS011;65384;52.016;5.428;2022-12-07T15:44:00;5.97;;;2.08;;
68457;SDS011;65384;52.016;5.428;2022-12-07T15:46:44;4.82;;;1.95;;
68457;SDS011;65384;52.016;5.428;2022-12-07T15:49:13;3.83;;;1.60;;
68457;SDS011;65384;52.016;5.428;2022-12-07T15:51:40;4.45;;;1.60;;
68457;SDS011;65384;52.016;5.428;2022-12-07T15:54:06;3.03;;;1.30;;
68457;SDS011;65384;52.016;5.428;2022-12-07T15:56:31;3.58;;;1.40;;
68457;SDS011;65384;52.016;5.428;2022-12-07T15:58:57;3.00;;;1.55;;
68457;SDS011;65384;52.016;5.428;2022-12-07T16:01:22;4.25;;;1.70;;
68457;SDS011;65384;52.016;5.428;2022-12-07T16:03:48;3.50;;;1.60;;
68457;SDS011;65384;52.016;5.428;2022-12-07T16:06:16;4.65;;;1.80;;
68457;SDS011;65384;52.016;5.428;2022-12-07T16:08:43;3.88;;;1.83;;
68457;SDS011;65384;52.016;5.428;2022-12-07T16:11:09;4.15;;;1.70;;
68457;SDS011;65384;52.016;5.428;2022-12-07T16:13:34;4.10;;;1.70;;
68457;SDS011;65384;52.016;5.428;2022-12-07T16:16:04;7.35;;;1.70;;
68457;SDS011;65384;52.016;5.428;2022-12-07T16:18:30;5.38;;;2.00;;
68457;SDS011;65384;52.016;5.428;2022-12-07T16:20:55;5.25;;;1.80;;
68457;SDS011;65384;52.016;5.428;2022-12-07T16:23:21;5.28;;;1.60;;
68457;SDS011;65384;52.016;5.428;2022-12-07T16:25:46;6.28;;;1.90;;
68457;SDS011;65384;52.016;5.428;2022-12-07T16:28:11;4.53;;;1.70;;
68457;SDS011;65384;52.016;5.428;2022-12-07T16:30:37;6.18;;;1.50;;
68457;SDS011;65384;52.016;5.428;2022-12-07T16:33:02;4.97;;;1.60;;
68457;SDS011;65384;52.016;5.428;2022-12-07T16:35:27;4.45;;;1.77;;
68457;SDS011;65384;52.016;5.428;2022-12-07T16:37:53;5.15;;;2.10;;
68457;SDS011;65384;52.016;5.428;2022-12-07T16:40:18;7.47;;;2.75;;
68457;SDS011;65384;52.016;5.428;2022-12-07T16:42:43;6.75;;;2.47;;
68457;SDS011;65384;52.016;5.428;2022-12-07T16:45:09;7.57;;;2.50;;
68457;SDS011;65384;52.016;5.428;2022-12-07T16:47:36;4.80;;;2.40;;
68457;SDS011;65384;52.016;5.428;2022-12-07T16:50:02;7.35;;;2.28;;
68457;SDS011;65384;52.016;5.428;2022-12-07T16:52:28;8.25;;;2.53;;
68457;SDS011;65384;52.016;5.428;2022-12-07T16:54:54;8.77;;;3.30;;
68457;SDS011;65384;52.016;5.428;2022-12-07T16:57:19;6.78;;;2.83;;
68457;SDS011;65384;52.016;5.428;2022-12-07T16:59:44;6.60;;;3.28;;
68457;SDS011;65384;52.016;5.428;2022-12-07T17:02:11;7.50;;;2.58;;
68457;SDS011;65384;52.016;5.428;2022-12-07T17:04:36;5.00;;;2.38;;
68457;SDS011;65384;52.016;5.428;2022-12-07T17:07:04;8.30;;;3.30;;
68457;SDS011;65384;52.016;5.428;2022-12-07T17:09:30;5.70;;;2.67;;
68457;SDS011;65384;52.016;5.428;2022-12-07T17:11:55;7.35;;;2.80;;